Terminal Aerodrome Forecast
Issued by NWS Charleston, WV

Current Version | Previous Version | Graphics & Text | Print | Product List | Glossary On
Versions: 1 2 3 4 5 6 7 8 9 10 11 12 13 14 15 16 17 18 19 20 21 22 23 24 25 26 27 28 29
699
FTUS41 KRLX 220543
TAFEKN
TAF
KEKN 220543Z 2206/2306 00000KT P6SM BKN080
     FM220900 00000KT 4SM BR BKN250
     FM221000 00000KT 1SM BR SCT002
     FM221100 00000KT 1/2SM FG VV002
     FM221230 00000KT 1SM BR BKN002
     FM221330 13004KT 5SM BR BKN080
     FM221500 13005KT P6SM BKN070
     FM221900 12008KT P6SM -RA OVC050
     FM230400 16005KT 5SM -RA OVC035=

USA.gov is the U.S. government's official web portal to all federal, state and local government web resources and services.